Time;durP1;ratioP1;P1;durP2;ratioP2;P2;SDS_P1;SDS_P2;PMS_P1;PMS_P2;Temp;Humidity;BMP_temperature;BMP_pressure;BME280_temperature;BME280_humidity;BME280_pressure;Samples;Min_cycle;Max_cycle;Signal;HPM_P1;HPM_P2
2024/01/02 05:48:36;;;;;;;1.02;0.80;;;;;;;7.22;100.00;98842.88;4756187;29;20540;-74
2024/01/02 05:51:04;;;;;;;1.20;1.10;;;;;;;7.25;100.00;98827.34;4768486;30;20047;-74
2024/01/02 05:53:29;;;;;;;0.88;0.80;;;;;;;7.26;100.00;98820.59;4768284;30;20486;-74
2024/01/02 05:55:55;;;;;;;1.02;0.93;;;;;;;7.27;100.00;98822.16;4758394;30;20036;-74
2024/01/02 05:58:20;;;;;;;1.77;1.35;;;;;;;7.32;100.00;98824.53;4768063;30;20040;-75
2024/01/02 06:00:49;;;;;;;1.92;1.15;;;;;;;7.33;100.00;98823.31;4767765;30;20039;-74
2024/01/02 06:03:14;;;;;;;1.67;1.00;;;;;;;7.35;100.00;98834.06;4764974;30;20050;-74
2024/01/02 06:05:39;;;;;;;1.48;0.90;;;;;;;7.30;100.00;98835.28;4767459;30;20039;-74
2024/01/02 06:08:05;;;;;;;0.93;0.73;;;;;;;7.35;100.00;98834.84;4760165;30;20119;-75
2024/01/02 06:10:30;;;;;;;0.82;0.82;;;;;;;7.38;100.00;98847.16;4761532;30;20031;-75
2024/01/02 06:12:55;;;;;;;1.98;0.85;;;;;;;7.34;100.00;98844.41;4760845;30;20058;-75
2024/01/02 06:15:21;;;;;;;1.63;0.73;;;;;;;7.40;100.00;98836.41;4765149;30;20126;-75
2024/01/02 06:17:46;;;;;;;0.90;0.70;;;;;;;7.43;100.00;98835.59;4769003;30;20069;-75
2024/01/02 06:20:11;;;;;;;1.23;0.93;;;;;;;7.44;100.00;98812.94;4769530;30;20494;-75
2024/01/02 06:22:40;;;;;;;1.13;1.00;;;;;;;7.47;100.00;98820.47;4769351;30;20039;-75
2024/01/02 06:25:08;;;;;;;1.48;1.33;;;;;;;7.53;100.00;98812.47;4784372;29;20157;-75
2024/01/02 06:27:34;;;;;;;1.27;0.93;;;;;;;7.58;100.00;98814.03;4756737;29;20133;-75
2024/01/02 06:30:00;;;;;;;1.23;1.13;;;;;;;7.61;100.00;98824.34;4782465;29;20035;-74
2024/01/02 06:32:28;;;;;;;1.00;0.77;;;;;;;7.61;100.00;98835.47;4774265;29;20521;-74
2024/01/02 06:34:53;;;;;;;1.50;1.25;;;;;;;7.62;100.00;98831.50;4779714;30;20369;-75
2024/01/02 06:37:19;;;;;;;1.33;1.17;;;;;;;7.64;100.00;98831.91;4782496;29;20560;-75
2024/01/02 06:39:44;;;;;;;1.13;1.02;;;;;;;7.70;100.00;98846.97;4784333;29;20135;-75
2024/01/02 06:42:09;;;;;;;1.27;0.90;;;;;;;7.76;100.00;98847.31;4783530;29;20039;-75
2024/01/02 06:44:35;;;;;;;1.45;1.00;;;;;;;7.73;100.00;98848.94;4799776;29;20035;-75
2024/01/02 06:47:00;;;;;;;2.10;0.80;;;;;;;7.82;100.00;98840.09;4777265;29;20060;-75
2024/01/02 06:49:26;;;;;;;1.25;0.90;;;;;;;7.89;100.00;98852.00;4764945;30;20417;-75
2024/01/02 06:51:51;;;;;;;0.60;0.52;;;;;;;7.95;100.00;98846.78;4765530;30;20115;-75
2024/01/02 06:54:16;;;;;;;1.95;0.68;;;;;;;7.90;100.00;98853.56;4766693;30;20031;-74
2024/01/02 06:56:42;;;;;;;0.73;0.60;;;;;;;8.09;100.00;98854.22;4762876;30;20054;-71
2024/01/02 06:59:07;;;;;;;1.10;1.00;;;;;;;8.24;100.00;98844.56;4760031;30;20440;-74
2024/01/02 07:01:33;;;;;;;0.55;0.50;;;;;;;8.25;100.00;98851.72;4755100;30;20036;-75
2024/01/02 07:03:58;;;;;;;1.50;0.82;;;;;;;8.27;100.00;98854.88;4763640;30;20814;-72
2024/01/02 07:06:23;;;;;;;1.20;1.05;;;;;;;8.50;100.00;98857.09;4765931;30;20064;-72
2024/01/02 07:08:49;;;;;;;1.10;1.00;;;;;;;8.49;100.00;98855.50;4761050;30;20031;-73
2024/01/02 07:11:14;;;;;;;2.97;1.60;;;;;;;8.59;100.00;98864.19;4761558;30;20058;-71
2024/01/02 07:13:39;;;;;;;1.90;1.33;;;;;;;8.71;100.00;98861.66;4757540;30;20036;-71
2024/01/02 07:16:05;;;;;;;2.58;1.40;;;;;;;8.53;100.00;98863.84;4759635;29;20133;-72
2024/01/02 07:18:30;;;;;;;5.78;2.60;;;;;;;8.90;100.00;98854.69;4760075;30;20051;-72
2024/01/02 07:20:56;;;;;;;8.00;2.35;;;;;;;8.71;100.00;98867.25;4760646;30;20071;-75
2024/01/02 07:23:22;;;;;;;7.55;3.35;;;;;;;8.89;100.00;98866.25;4761744;30;20123;-72
2024/01/02 07:25:47;;;;;;;9.40;3.42;;;;;;;8.86;100.00;98872.66;4759266;30;20060;-72
2024/01/02 07:28:13;;;;;;;4.57;2.60;;;;;;;8.93;100.00;98867.78;4758495;30;20039;-75
2024/01/02 07:30:38;;;;;;;9.05;3.67;;;;;;;9.03;100.00;98868.88;4755354;30;20039;-74
2024/01/02 07:33:04;;;;;;;5.78;3.45;;;;;;;9.12;100.00;98880.31;4763256;30;20096;-72
2024/01/02 07:35:29;;;;;;;5.88;3.03;;;;;;;8.90;100.00;98873.44;4761834;29;20123;-72
2024/01/02 07:37:54;;;;;;;6.75;3.25;;;;;;;9.26;100.00;98898.13;4763868;30;20035;-72
2024/01/02 07:40:20;;;;;;;10.73;3.88;;;;;;;8.98;100.00;98902.84;4762832;30;20042;-73
2024/01/02 07:42:45;;;;;;;7.13;3.58;;;;;;;9.04;100.00;98909.50;4763644;30;20164;-73
2024/01/02 07:45:10;;;;;;;8.68;3.47;;;;;;;9.08;100.00;98909.50;4758827;30;20035;-74
2024/01/02 07:47:36;;;;;;;7.55;3.38;;;;;;;9.24;100.00;98918.06;4750749;30;20059;-74
2024/01/02 07:50:04;;;;;;;7.30;4.05;;;;;;;9.24;100.00;98914.50;4762636;30;20035;-72
2024/01/02 07:52:32;;;;;;;7.45;3.00;;;;;;;9.30;100.00;98918.41;4764380;30;20493;-72
2024/01/02 07:54:57;;;;;;;10.90;3.03;;;;;;;9.46;100.00;98923.41;4762195;30;20122;-73
2024/01/02 07:57:22;;;;;;;11.00;2.90;;;;;;;9.21;100.00;98926.47;4761894;30;20130;-73
2024/01/02 07:59:48;;;;;;;9.45;3.30;;;;;;;9.48;100.00;98918.97;4759637;30;20046;-72
2024/01/02 08:02:13;;;;;;;12.73;3.30;;;;;;;9.42;100.00;98931.03;4755664;30;20044;-74
2024/01/02 08:04:38;;;;;;;7.60;2.60;;;;;;;9.41;100.00;98935.81;4760833;30;20028;-73
2024/01/02 08:07:04;;;;;;;13.57;2.92;;;;;;;9.49;100.00;98931.75;4760352;29;20071;-75
2024/01/02 08:09:33;;;;;;;8.00;2.63;;;;;;;9.28;100.00;98941.16;4764753;30;20169;-75
2024/01/02 08:12:01;;;;;;;13.93;3.47;;;;;;;9.41;100.00;98947.00;4761075;30;20032;-76
2024/01/02 08:14:27;;;;;;;13.98;2.42;;;;;;;9.45;100.00;98947.75;4757886;30;20591;-77
2024/01/02 08:16:52;;;;;;;14.27;2.65;;;;;;;9.45;100.00;98955.34;4759654;30;20122;-75
2024/01/02 08:19:17;;;;;;;11.50;3.00;;;;;;;9.39;100.00;98977.34;4764964;30;20127;-75
2024/01/02 08:21:43;;;;;;;14.95;2.53;;;;;;;9.53;100.00;98970.81;4761755;30;20207;-75
2024/01/02 08:24:08;;;;;;;21.27;2.67;;;;;;;9.63;100.00;98975.44;4758594;30;20036;-76
2024/01/02 08:26:33;;;;;;;6.07;2.13;;;;;;;9.59;100.00;98973.91;4761344;30;20126;-76
2024/01/02 08:28:59;;;;;;;12.35;3.13;;;;;;;9.57;100.00;98971.53;4755913;30;20042;-75
2024/01/02 08:31:24;;;;;;;10.63;2.70;;;;;;;9.55;100.00;98968.38;4761605;30;20396;-74
2024/01/02 08:33:50;;;;;;;5.25;1.83;;;;;;;9.55;100.00;98974.75;4763396;30;20031;-75
2024/01/02 08:36:16;;;;;;;9.50;2.30;;;;;;;9.50;100.00;98978.00;4756733;30;20043;-76
2024/01/02 08:38:42;;;;;;;10.20;2.40;;;;;;;9.76;100.00;98978.47;4751741;29;20109;-75
2024/01/02 08:41:07;;;;;;;7.50;2.00;;;;;;;9.74;100.00;98969.75;4767750;29;20399;-75
2024/01/02 08:43:33;;;;;;;15.13;3.42;;;;;;;9.76;100.00;98967.28;4760990;30;20039;-75
2024/01/02 08:45:58;;;;;;;7.35;2.13;;;;;;;9.67;100.00;98964.22;4761730;30;20034;-75
2024/01/02 08:48:24;;;;;;;14.57;2.72;;;;;;;9.76;100.00;98975.69;4763175;30;20048;-74
2024/01/02 08:50:49;;;;;;;11.52;3.08;;;;;;;9.73;100.00;98966.13;4763345;30;20134;-75
2024/01/02 08:53:14;;;;;;;8.75;1.90;;;;;;;9.80;100.00;98973.63;4759518;30;20120;-75
2024/01/02 08:55:40;;;;;;;8.45;1.90;;;;;;;9.84;100.00;98973.59;4773264;29;20202;-75
2024/01/02 08:58:06;;;;;;;7.55;2.15;;;;;;;9.79;100.00;98972.06;4777110;30;20483;-75
2024/01/02 09:00:31;;;;;;;9.43;2.75;;;;;;;9.86;100.00;98974.75;4763959;30;20034;-75
2024/01/02 09:02:59;;;;;;;8.95;2.85;;;;;;;9.84;100.00;98971.59;4762876;30;20046;-75
2024/01/02 09:05:26;;;;;;;17.13;2.70;;;;;;;9.76;100.00;98956.94;4759737;30;20574;-75
2024/01/02 09:07:52;;;;;;;24.88;2.65;;;;;;;9.75;100.00;98960.13;4762576;30;20043;-75
2024/01/02 09:10:17;;;;;;;15.38;3.42;;;;;;;9.90;100.00;98967.13;4756238;30;20035;-75
2024/01/02 09:12:42;;;;;;;14.90;4.18;;;;;;;9.95;100.00;98975.03;4762069;30;20100;-75
2024/01/02 09:15:08;;;;;;;12.23;2.83;;;;;;;9.95;100.00;98977.84;4761872;30;20559;-75
2024/01/02 09:17:34;;;;;;;15.43;2.63;;;;;;;9.91;100.00;98976.31;4760291;30;20047;-73
2024/01/02 09:19:59;;;;;;;13.27;3.33;;;;;;;9.97;100.00;98983.81;4779059;29;20047;-73
2024/01/02 09:22:25;;;;;;;18.10;3.92;;;;;;;9.94;100.00;98981.84;4762103;30;20038;-74
2024/01/02 09:24:52;;;;;;;13.30;3.33;;;;;;;9.96;100.00;98979.41;4775997;29;20038;-74
2024/01/02 09:27:18;;;;;;;14.25;3.80;;;;;;;9.87;100.00;98984.72;4760747;30;20047;-75
2024/01/02 09:29:44;;;;;;;15.77;3.05;;;;;;;9.98;100.00;98974.19;4759482;30;20127;-76
2024/01/02 09:32:12;;;;;;;22.20;3.72;;;;;;;10.04;100.00;98979.31;4756398;30;20040;-76
2024/01/02 09:34:37;;;;;;;17.85;4.18;;;;;;;10.11;100.00;98968.03;4758857;30;20090;-76
2024/01/02 09:37:09;;;;;;;19.90;3.40;;;;;;;10.18;100.00;98976.31;4762086;30;20071;-76
2024/01/02 09:39:34;;;;;;;23.50;5.30;;;;;;;10.13;100.00;98979.59;4756202;30;20055;-75
2024/01/02 09:42:31;;;;;;;18.27;4.30;;;;;;;9.94;100.00;98976.25;4756019;30;20158;-75
2024/01/02 09:45:12;;;;;;;14.65;4.63;;;;;;;10.22;100.00;98971.44;4763296;30;20498;-75
2024/01/02 09:47:40;;;;;;;24.77;4.57;;;;;;;10.12;100.00;98983.59;4759162;30;20414;-75
2024/01/02 09:50:12;;;;;;;21.77;4.10;;;;;;;10.09;100.00;98990.81;4761241;30;20142;-75
2024/01/02 09:53:03;;;;;;;17.83;4.47;;;;;;;10.13;100.00;98994.34;4762694;30;20495;-76
2024/01/02 09:55:51;;;;;;;16.85;4.55;;;;;;;10.28;100.00;98985.75;4760914;30;20042;-75
2024/01/02 09:58:24;;;;;;;23.85;4.90;;;;;;;10.13;100.00;98979.59;4759494;30;20041;-75
2024/01/02 10:00:49;;;;;;;;;;;;;;;10.28;100.00;98992.13;4761712;30;20032;-75
2024/01/02 10:03:30;;;;;;;17.65;4.45;;;;;;;10.37;100.00;98989.66;4762108;29;20403;-75
2024/01/02 10:06:26;;;;;;;23.55;5.13;;;;;;;10.40;100.00;99001.22;4761775;30;20039;-75
2024/01/02 10:09:13;;;;;;;20.08;4.18;;;;;;;10.30;100.00;98989.75;4763861;30;20086;-76
2024/01/02 10:12:01;;;;;;;21.90;3.80;;;;;;;10.25;100.00;99004.19;4757340;30;20718;-76
2024/01/02 10:14:35;;;;;;;26.20;4.90;;;;;;;10.35;100.00;98997.66;4757339;30;20050;-75
2024/01/02 10:17:17;;;;;;;19.05;4.15;;;;;;;10.43;100.00;98994.75;4755779;30;20039;-75
2024/01/02 10:20:08;;;;;;;23.17;3.90;;;;;;;10.38;100.00;98991.22;4759299;30;20394;-76
2024/01/02 10:22:41;;;;;;;21.98;3.60;;;;;;;10.23;100.00;98992.63;4757509;30;20133;-75
2024/01/02 10:25:14;;;;;;;14.80;4.18;;;;;;;10.44;100.00;98987.97;4757105;30;20067;-75
2024/01/02 10:27:45;;;;;;;25.33;5.88;;;;;;;10.45;100.00;98986.72;4752609;30;20043;-75
2024/01/02 10:30:12;;;;;;;22.67;3.55;;;;;;;10.49;100.00;98995.84;4761704;30;20410;-75
2024/01/02 10:33:07;;;;;;;22.95;4.47;;;;;;;10.51;100.00;98999.03;4760929;30;20063;-75
2024/01/02 10:35:37;;;;;;;23.40;4.20;;;;;;;10.52;100.00;98995.00;4764215;30;20079;-75
2024/01/02 10:38:34;;;;;;;20.90;4.38;;;;;;;10.62;100.00;98984.88;4766183;30;20039;-76
2024/01/02 10:41:37;;;;;;;18.00;4.75;;;;;;;10.59;100.00;98972.53;4759616;30;20058;-75
2024/01/02 10:44:12;;;;;;;;;;;;;;;10.62;100.00;98970.88;4764504;29;20048;-76
2024/01/02 10:46:46;;;;;;;15.32;4.97;;;;;;;10.60;100.00;98974.09;4759205;30;19930;-72
2024/01/02 10:49:20;;;;;;;17.90;3.72;;;;;;;10.57;100.00;98972.94;4758799;30;20042;-75
2024/01/02 10:51:56;;;;;;;15.88;3.90;;;;;;;10.60;100.00;98973.31;4763169;30;20050;-74
2024/01/02 10:54:37;;;;;;;15.75;3.47;;;;;;;10.63;100.00;98978.06;4762801;30;20054;-72
2024/01/02 10:57:07;;;;;;;24.25;4.70;;;;;;;10.63;100.00;98973.25;4757627;30;20097;-73
2024/01/02 10:59:41;;;;;;;24.17;4.18;;;;;;;10.65;100.00;98964.44;4757390;30;20798;-75
2024/01/02 11:02:18;;;;;;;24.35;4.45;;;;;;;10.66;100.00;98958.41;4758378;30;20070;-72
2024/01/02 11:05:20;;;;;;;14.98;4.18;;;;;;;10.65;100.00;98965.22;4759753;30;20119;-72
2024/01/02 11:07:50;;;;;;;22.20;4.13;;;;;;;10.62;100.00;98951.28;4759222;30;20040;-73
2024/01/02 11:10:19;;;;;;;24.35;5.55;;;;;;;10.50;100.00;98950.69;4761350;30;20039;-74
2024/01/02 11:12:54;;;;;;;27.10;5.70;;;;;;;10.69;100.00;98951.97;4762207;30;20490;-73
2024/01/02 11:15:22;;;;;;;21.08;5.32;;;;;;;10.67;100.00;98943.22;4763234;30;20470;-73
2024/01/02 11:17:52;;;;;;;18.95;4.63;;;;;;;10.60;100.00;98929.34;4762343;30;20662;-74
2024/01/02 11:20:20;;;;;;;14.57;3.60;;;;;;;10.57;100.00;98919.00;4762765;30;20839;-73
2024/01/02 11:22:53;;;;;;;17.15;4.28;;;;;;;10.58;100.00;98928.97;4759908;30;20035;-74
2024/01/02 11:25:22;;;;;;;18.85;4.53;;;;;;;10.63;100.00;98922.91;4758462;30;20803;-72
2024/01/02 11:27:51;;;;;;;31.00;6.55;;;;;;;10.53;100.00;98912.69;4758740;30;20046;-73
2024/01/02 11:30:17;;;;;;;24.77;6.15;;;;;;;10.68;100.00;98914.00;4761460;30;20870;-73
2024/01/02 11:33:24;;;;;;;23.05;5.22;;;;;;;10.62;100.00;98912.91;4762245;30;20040;-73
2024/01/02 11:36:07;;;;;;;23.95;5.43;;;;;;;10.71;100.00;98907.56;4761082;30;20387;-72
2024/01/02 11:39:04;;;;;;;30.17;6.07;;;;;;;10.72;100.00;98892.34;4760615;30;20494;-74
2024/01/02 11:41:55;;;;;;;27.10;5.68;;;;;;;10.66;100.00;98896.84;4761632;29;20044;-74
2024/01/02 11:44:42;;;;;;;12.55;4.38;;;;;;;10.74;100.00;98889.91;4758116;30;20153;-74
2024/01/02 11:47:40;;;;;;;19.70;5.05;;;;;;;10.67;100.00;98884.47;4773426;29;20621;-74
2024/01/02 11:50:07;;;;;;;13.68;4.45;;;;;;;10.70;100.00;98883.59;4758058;30;20123;-73
2024/01/02 11:52:40;;;;;;;27.13;6.85;;;;;;;10.81;100.00;98879.81;4757210;30;20035;-72
2024/01/02 11:55:28;;;;;;;22.00;4.80;;;;;;;10.84;100.00;98870.56;4763356;30;20063;-73
2024/01/02 11:57:54;;;;;;;24.52;4.90;;;;;;;10.82;100.00;98861.81;4759484;30;20071;-76
2024/01/02 12:00:41;;;;;;;21.58;4.68;;;;;;;10.81;100.00;98843.44;4771972;29;20059;-76
2024/01/02 12:03:24;;;;;;;22.80;5.05;;;;;;;10.83;100.00;98849.38;4765482;30;20035;-76
2024/01/02 12:05:50;;;;;;;;;;;;;;;10.81;100.00;98844.22;4760600;30;20042;-76
2024/01/02 12:08:24;;;;;;;25.45;5.68;;;;;;;10.82;100.00;98847.81;4761942;30;20382;-76
2024/01/02 12:10:56;;;;;;;24.77;6.63;;;;;;;10.88;100.00;98848.88;4763510;30;20059;-76
2024/01/02 12:14:05;;;;;;;21.00;5.30;;;;;;;10.89;100.00;98847.66;4764960;30;20408;-76
2024/01/02 12:16:36;;;;;;;17.27;4.75;;;;;;;10.84;100.00;98828.59;4760946;30;20506;-76
2024/01/02 12:19:04;;;;;;;22.08;7.20;;;;;;;10.83;100.00;98830.56;4765851;30;20043;-76
2024/01/02 12:21:33;;;;;;;20.45;6.38;;;;;;;10.84;100.00;98820.97;4764322;30;20376;-76
2024/01/02 12:24:01;;;;;;;18.73;4.88;;;;;;;10.82;100.00;98823.41;4756219;30;20035;-76
2024/01/02 12:26:30;;;;;;;24.95;6.53;;;;;;;10.84;100.00;98820.19;4764428;30;20035;-76
2024/01/02 12:28:59;;;;;;;24.33;6.88;;;;;;;10.81;100.00;98815.44;4764040;30;20059;-76
2024/01/02 12:31:52;;;;;;;39.17;6.38;;;;;;;10.80;100.00;98797.88;4759976;30;20036;-76
2024/01/02 12:34:41;;;;;;;;;;;;;;;10.82;100.00;98797.44;4756767;30;20131;-76
2024/01/02 12:37:23;;;;;;;19.50;6.35;;;;;;;10.93;100.00;98787.59;4778835;29;19964;-76
2024/01/02 12:39:52;;;;;;;20.70;6.07;;;;;;;10.79;100.00;98779.47;4763669;30;20453;-76
2024/01/02 12:42:21;;;;;;;25.48;8.60;;;;;;;10.77;100.00;98771.53;4764136;30;20054;-76
2024/01/02 12:44:51;;;;;;;28.48;8.63;;;;;;;10.73;100.00;98764.41;4759976;30;20027;-76
2024/01/02 12:47:22;;;;;;;30.35;8.40;;;;;;;10.70;100.00;98754.88;4755538;30;20120;-76
2024/01/02 12:49:58;;;;;;;24.80;6.90;;;;;;;10.71;100.00;98752.84;4760996;30;20043;-76
2024/01/02 12:52:28;;;;;;;33.28;8.60;;;;;;;10.71;100.00;98739.69;4761029;30;20089;-76
2024/01/02 12:54:56;;;;;;;18.30;7.18;;;;;;;10.66;100.00;98736.59;4758225;30;20048;-76
2024/01/02 12:57:22;;;;;;;25.77;9.20;;;;;;;10.63;100.00;98729.84;4761495;30;20949;-76
2024/01/02 12:59:48;;;;;;;25.73;7.85;;;;;;;10.72;100.00;98723.69;4762316;30;20042;-76
2024/01/02 13:02:13;;;;;;;29.92;7.18;;;;;;;10.63;100.00;98713.06;4758664;30;20036;-77
2024/01/02 13:04:39;;;;;;;16.13;7.60;;;;;;;10.64;100.00;98703.44;4759409;30;20031;-76
2024/01/02 13:07:11;;;;;;;24.85;7.32;;;;;;;10.64;100.00;98695.03;4757202;30;20032;-76
2024/01/02 13:09:45;;;;;;;24.40;7.43;;;;;;;10.60;100.00;98691.53;4754510;30;20162;-78
2024/01/02 13:12:12;;;;;;;26.17;7.22;;;;;;;10.65;100.00;98685.44;4755742;30;20067;-77
2024/01/02 13:14:38;;;;;;;24.70;7.90;;;;;;;10.64;100.00;98678.25;4756071;30;20040;-76
2024/01/02 13:17:06;;;;;;;23.25;6.00;;;;;;;10.62;100.00;98675.09;4757472;30;20047;-77
2024/01/02 13:19:31;;;;;;;15.18;6.45;;;;;;;10.64;100.00;98667.06;4766830;30;20043;-76
2024/01/02 13:21:57;;;;;;;12.82;5.45;;;;;;;10.62;100.00;98669.50;4760733;30;20071;-75
2024/01/02 13:24:24;;;;;;;15.85;5.80;;;;;;;10.56;100.00;98655.25;4762818;30;20032;-75
2024/01/02 13:26:52;;;;;;;15.02;5.57;;;;;;;10.65;100.00;98648.28;4765000;30;20036;-76
2024/01/02 13:29:18;;;;;;;13.95;5.18;;;;;;;10.60;100.00;98649.56;4764592;30;20205;-76
2024/01/02 13:31:53;;;;;;;11.35;4.97;;;;;;;10.69;100.00;98640.59;4763575;30;21617;-75
2024/01/02 13:34:23;;;;;;;12.77;5.25;;;;;;;10.74;100.00;98629.69;4758313;30;20065;-75
2024/01/02 13:36:49;;;;;;;13.93;4.65;;;;;;;10.72;100.00;98634.13;4757761;30;20498;-75
2024/01/02 13:39:34;;;;;;;11.38;4.13;;;;;;;10.81;100.00;98630.75;4760389;30;20039;-75
2024/01/02 13:42:02;;;;;;;5.43;3.00;;;;;;;10.76;100.00;98621.63;4757674;30;20028;-76
2024/01/02 13:44:31;;;;;;;4.63;3.10;;;;;;;10.76;100.00;98624.44;4759857;30;20061;-76
2024/01/02 13:46:56;;;;;;;6.47;2.97;;;;;;;10.86;100.00;98621.84;4759015;30;20134;-74
2024/01/02 13:49:48;;;;;;;5.53;2.40;;;;;;;10.86;100.00;98616.25;4762502;30;20248;-76
2024/01/02 13:52:24;;;;;;;4.38;2.42;;;;;;;10.90;100.00;98605.72;4760758;30;20063;-75
2024/01/02 13:54:52;;;;;;;3.60;1.90;;;;;;;10.90;100.00;98605.72;4760805;30;20095;-76
2024/01/02 13:57:28;;;;;;;3.03;1.73;;;;;;;10.85;100.00;98597.88;4759034;30;20403;-75
2024/01/02 13:59:55;;;;;;;2.38;1.85;;;;;;;10.88;100.00;98597.78;4756452;30;20173;-75
2024/01/02 14:02:23;;;;;;;2.97;1.67;;;;;;;10.77;100.00;98597.25;4758491;30;20556;-76
2024/01/02 14:04:59;;;;;;;2.92;1.90;;;;;;;10.82;100.00;98587.56;4761651;30;20123;-75
2024/01/02 14:07:28;;;;;;;2.40;1.85;;;;;;;10.88;100.00;98585.78;4759671;30;20098;-77
2024/01/02 14:09:54;;;;;;;2.13;1.63;;;;;;;10.80;100.00;98573.22;4760762;30;20036;-76
2024/01/02 14:12:21;;;;;;;1.63;1.48;;;;;;;10.90;100.00;98574.94;4760198;30;20059;-76
2024/01/02 14:14:57;;;;;;;3.88;1.98;;;;;;;10.83;100.00;98572.31;4762655;30;20078;-76
2024/01/02 14:17:25;;;;;;;3.80;1.60;;;;;;;10.80;100.00;98567.63;4762993;30;20035;-75
2024/01/02 14:19:58;;;;;;;1.83;1.40;;;;;;;10.79;100.00;98566.81;4764018;30;20047;-75
2024/01/02 14:22:32;;;;;;;1.73;1.25;;;;;;;10.70;100.00;98559.03;4762796;30;20043;-76
2024/01/02 14:25:21;;;;;;;2.95;2.00;;;;;;;10.67;100.00;98551.50;4761920;30;20490;-75
2024/01/02 14:28:01;;;;;;;2.00;1.40;;;;;;;10.72;100.00;98539.00;4760352;30;20089;-75
2024/01/02 14:30:36;;;;;;;1.85;1.48;;;;;;;10.67;100.00;98531.94;4762224;30;20050;-76
2024/01/02 14:33:20;;;;;;;2.28;1.98;;;;;;;10.66;100.00;98526.75;4763047;30;20051;-75
2024/01/02 14:36:18;;;;;;;2.88;1.65;;;;;;;10.66;100.00;98530.34;4761524;30;20036;-76
2024/01/02 14:39:20;;;;;;;1.83;1.38;;;;;;;10.62;100.00;98507.25;4766053;30;20104;-75
2024/01/02 14:42:02;;;;;;;2.20;1.90;;;;;;;10.61;100.00;98504.91;4757733;30;20031;-75
2024/01/02 14:44:43;;;;;;;1.65;1.35;;;;;;;10.49;100.00;98492.38;4770896;29;20043;-75
2024/01/02 14:47:28;;;;;;;1.30;1.05;;;;;;;10.42;100.00;98484.19;4756332;30;20108;-75
2024/01/02 14:49:55;;;;;;;2.85;1.20;;;;;;;10.47;100.00;98478.84;4758819;30;20043;-74
2024/01/02 14:52:23;;;;;;;1.75;1.50;;;;;;;10.50;100.00;98466.78;4763001;30;20046;-75
2024/01/02 14:55:26;;;;;;;2.15;1.05;;;;;;;10.42;100.00;98467.41;4761450;30;20059;-74
2024/01/02 14:58:17;;;;;;;1.30;1.17;;;;;;;10.41;100.00;98458.19;4759682;30;20032;-76
2024/01/02 15:01:00;;;;;;;2.63;1.38;;;;;;;10.37;100.00;98449.91;4765333;30;20070;-75
2024/01/02 15:03:36;;;;;;;2.47;1.20;;;;;;;10.44;100.00;98448.97;4755687;30;20043;-75
2024/01/02 15:06:04;;;;;;;2.30;1.25;;;;;;;10.30;100.00;98430.50;4757668;30;20052;-75
2024/01/02 15:09:14;;;;;;;1.63;1.13;;;;;;;10.32;100.00;98428.06;4758963;30;20043;-75
2024/01/02 15:11:59;;;;;;;1.27;1.08;;;;;;;10.34;100.00;98413.66;4758544;30;20039;-75
2024/01/02 15:15:03;;;;;;;2.03;1.00;;;;;;;10.22;100.00;98412.28;4761344;30;20040;-74
2024/01/02 15:17:58;;;;;;;4.03;1.50;;;;;;;10.24;100.00;98397.88;4773654;30;20031;-75
2024/01/02 15:20:43;;;;;;;1.83;1.15;;;;;;;10.17;100.00;98390.47;4761687;30;20609;-74
2024/01/02 15:23:53;;;;;;;1.48;1.17;;;;;;;10.16;100.00;98386.06;4760436;30;20625;-74
2024/01/02 15:26:28;;;;;;;1.02;0.75;;;;;;;10.17;100.00;98379.28;4764950;30;20489;-72
2024/01/02 15:29:06;;;;;;;1.23;1.10;;;;;;;10.16;100.00;98366.50;4756599;30;20564;-74
2024/01/02 15:31:34;;;;;;;1.45;1.00;;;;;;;10.21;100.00;98357.63;4765764;30;20040;-75
2024/01/02 15:34:12;;;;;;;2.08;1.73;;;;;;;10.18;100.00;98361.25;4764681;30;20136;-74
2024/01/02 15:37:13;;;;;;;3.67;1.42;;;;;;;10.22;100.00;98356.38;4760765;30;20043;-75
2024/01/02 15:39:41;;;;;;;2.15;1.50;;;;;;;10.20;100.00;98344.84;4762168;30;20070;-76
2024/01/02 15:42:24;;;;;;;4.50;1.48;;;;;;;10.25;100.00;98335.16;4761017;30;20072;-77
2024/01/02 15:45:03;;;;;;;1.52;1.42;;;;;;;10.12;100.00;98329.50;4760933;30;20123;-76
2024/01/02 15:47:42;;;;;;;2.20;1.50;;;;;;;10.16;100.00;98319.78;4758436;30;20048;-76
2024/01/02 15:50:13;;;;;;;1.85;1.40;;;;;;;10.20;100.00;98314.09;4761417;30;20040;-75
2024/01/02 15:52:47;;;;;;;1.42;1.33;;;;;;;10.19;100.00;98315.34;4762321;30;20039;-76
2024/01/02 15:55:17;;;;;;;2.28;1.92;;;;;;;10.25;100.00;98310.00;4762612;29;23554;-77
2024/01/02 15:57:49;;;;;;;3.38;1.95;;;;;;;10.22;100.00;98297.66;4764711;30;20035;-78
2024/01/02 16:00:24;;;;;;;1.95;1.70;;;;;;;10.29;100.00;98294.75;4764935;30;20110;-76
2024/01/02 16:03:01;;;;;;;3.67;2.13;;;;;;;10.32;100.00;98282.66;4766183;29;20127;-76
2024/01/02 16:05:27;;;;;;;2.33;1.95;;;;;;;10.28;100.00;98275.56;4767981;30;20064;-76
2024/01/02 16:08:16;;;;;;;2.58;2.30;;;;;;;10.30;100.00;98257.16;4771376;30;20116;-76
2024/01/02 16:11:19;;;;;;;5.65;2.15;;;;;;;10.27;100.00;98249.63;4759074;30;20051;-76
2024/01/02 16:14:14;;;;;;;6.55;4.82;;;;;;;10.27;100.00;98243.25;4748751;29;20058;-75
2024/01/02 16:17:16;;;;;;;7.22;5.82;;;;;;;10.28;100.00;98228.81;4759775;30;20064;-75
2024/01/02 16:20:26;;;;;;;6.18;4.28;;;;;;;10.22;100.00;98215.81;4765402;29;20135;-76
2024/01/02 16:23:09;;;;;;;4.82;3.92;;;;;;;10.25;100.00;98204.56;4744544;29;20058;-76
2024/01/02 16:25:40;;;;;;;7.22;5.95;;;;;;;10.27;100.00;98196.50;4757357;30;20040;-76
2024/01/02 16:28:27;;;;;;;7.22;6.40;;;;;;;10.26;100.00;98191.34;4758084;30;20110;-76
2024/01/02 16:31:23;;;;;;;7.20;6.50;;;;;;;10.22;100.00;98177.47;4756260;30;20055;-76
2024/01/02 16:34:17;;;;;;;5.85;5.35;;;;;;;10.28;100.00;98175.69;4758572;30;20047;-76
2024/01/02 16:37:03;;;;;;;6.20;5.43;;;;;;;10.32;100.00;98173.63;4757350;30;20035;-76
2024/01/02 16:39:34;;;;;;;5.15;4.65;;;;;;;10.35;100.00;98169.94;4759786;30;20673;-75
2024/01/02 16:42:02;;;;;;;5.47;4.93;;;;;;;10.35;100.00;98164.34;4755356;30;20035;-76
2024/01/02 16:44:30;;;;;;;6.43;5.40;;;;;;;10.34;100.00;98159.97;4758842;30;20107;-76
2024/01/02 16:46:59;;;;;;;6.55;4.75;;;;;;;10.32;100.00;98148.44;4757825;30;20686;-75
2024/01/02 16:49:34;;;;;;;5.60;4.20;;;;;;;10.32;100.00;98136.50;4758055;30;20051;-76
2024/01/02 16:52:03;;;;;;;13.20;7.95;;;;;;;10.34;100.00;98129.22;4764493;30;20166;-75
2024/01/02 16:54:32;;;;;;;11.57;7.90;;;;;;;10.33;100.00;98118.47;4762923;30;20046;-75
2024/01/02 16:57:00;;;;;;;12.90;8.30;;;;;;;10.34;100.00;98104.06;4767564;29;20043;-75
2024/01/02 16:59:26;;;;;;;14.15;9.27;;;;;;;11.32;100.00;98093.44;4759541;30;20173;-77
2024/01/02 17:01:53;;;;;;;33.55;16.30;;;;;;;10.87;100.00;98094.50;4757341;30;20344;-75
2024/01/02 17:04:19;;;;;;;14.15;10.35;;;;;;;10.57;100.00;98079.81;4758381;30;20043;-75
2024/01/02 17:06:45;;;;;;;11.70;7.90;;;;;;;10.46;100.00;98073.78;4772847;30;20043;-75
2024/01/02 17:09:12;;;;;;;8.25;5.72;;;;;;;10.41;100.00;98060.34;4761126;30;20043;-75
2024/01/02 17:11:38;;;;;;;4.40;3.70;;;;;;;10.37;100.00;98050.06;4759684;30;20036;-75
2024/01/02 17:14:04;;;;;;;4.70;3.80;;;;;;;10.30;100.00;98047.47;4761469;30;20418;-75
2024/01/02 17:16:30;;;;;;;4.78;4.32;;;;;;;10.35;100.00;98040.53;4758362;30;20043;-75
2024/01/02 17:18:56;;;;;;;9.27;4.93;;;;;;;10.33;100.00;98038.19;4758975;30;20406;-75
2024/01/02 17:21:23;;;;;;;6.60;3.65;;;;;;;10.35;100.00;98021.75;4757177;30;20682;-75
2024/01/02 17:23:48;;;;;;;4.95;4.50;;;;;;;10.36;100.00;98019.75;4759681;30;20027;-75
2024/01/02 17:26:24;;;;;;;13.73;9.15;;;;;;;10.32;100.00;98011.47;4758299;30;20611;-75
2024/01/02 17:29:00;;;;;;;4.85;4.35;;;;;;;10.33;100.00;98010.25;4760123;30;20040;-75
2024/01/02 17:31:27;;;;;;;4.25;3.28;;;;;;;10.34;100.00;98009.00;4760189;30;20032;-75
2024/01/02 17:34:04;;;;;;;6.30;4.03;;;;;;;10.33;100.00;97993.47;4756121;30;20421;-75
2024/01/02 17:36:31;;;;;;;6.80;4.30;;;;;;;10.33;100.00;97995.47;4758482;30;21036;-75
2024/01/02 17:38:57;;;;;;;5.78;3.78;;;;;;;10.28;100.00;97990.41;4764427;30;20150;-75